createdAt,value
2023-01-07T00:04:50.879Z,-22.80
2023-01-07T00:09:54.629Z,-22.88
2023-01-07T00:14:58.114Z,-22.88
2023-01-07T00:20:03.126Z,-22.85
2023-01-07T00:25:07.968Z,-22.86
2023-01-07T00:30:13.139Z,-22.83
2023-01-07T00:35:23.437Z,-22.90
2023-01-07T00:40:27.132Z,-22.87
2023-01-07T00:45:32.280Z,-22.86
2023-01-07T00:50:38.612Z,-22.89
2023-01-07T00:55:42.491Z,-22.91
2023-01-07T01:00:46.176Z,-22.99
2023-01-07T01:05:51.263Z,-22.97
2023-01-07T01:10:54.857Z,-22.96
2023-01-07T01:15:58.472Z,-22.96
2023-01-07T01:21:06.864Z,-22.94
2023-01-07T01:26:12.526Z,-22.90
2023-01-07T01:31:16.202Z,-23.06
2023-01-07T01:36:21.157Z,-22.97
2023-01-07T01:41:25.255Z,-23.01
2023-01-07T01:46:35.238Z,-23.00
2023-01-07T01:51:44.636Z,-22.93
2023-01-07T01:56:51.924Z,-22.88
2023-01-07T02:01:55.823Z,-22.91
2023-01-07T02:07:04.689Z,-22.84
2023-01-07T02:12:18.373Z,-22.84
2023-01-07T02:17:30.584Z,-22.86
2023-01-07T02:22:59.449Z,-22.82
2023-01-07T02:28:44.246Z,-22.94
2023-01-07T02:33:56.389Z,-22.96
2023-01-07T02:39:17.615Z,-23.10
2023-01-07T02:44:29.573Z,-23.18
2023-01-07T02:49:35.950Z,-23.13
2023-01-07T02:54:39.512Z,-23.19
2023-01-07T03:00:08.700Z,-23.26
2023-01-07T03:05:41.809Z,-23.11
2023-01-07T03:10:54.590Z,-23.17
2023-01-07T03:16:04.439Z,-23.16
2023-01-07T03:21:13.990Z,-23.12
2023-01-07T03:26:22.096Z,-23.16
2023-01-07T03:31:26.282Z,-23.19
2023-01-07T03:36:36.064Z,-23.12
2023-01-07T03:41:57.918Z,-22.91
2023-01-07T03:47:01.602Z,-22.94
2023-01-07T03:52:06.768Z,-22.98
2023-01-07T03:57:10.442Z,-23.14
2023-01-07T04:02:14.195Z,-23.27
2023-01-07T04:07:19.370Z,-23.32
2023-01-07T04:12:22.725Z,-23.31
2023-01-07T04:17:26.386Z,-23.30
2023-01-07T04:22:31.231Z,-23.36
2023-01-07T04:27:34.899Z,-23.45
2023-01-07T04:32:38.237Z,-23.48
2023-01-07T04:37:43.210Z,-23.56
2023-01-07T04:42:46.537Z,-23.62
2023-01-07T04:47:50.164Z,-23.66
2023-01-07T04:52:54.965Z,-23.70
2023-01-07T04:57:58.700Z,-23.69
2023-01-07T05:03:02.061Z,-23.75
2023-01-07T05:08:07.435Z,-23.72
2023-01-07T05:13:16.563Z,-23.79
2023-01-07T05:18:20.136Z,-23.85
2023-01-07T05:23:25.031Z,-23.90
2023-01-07T05:28:28.649Z,-23.98
2023-01-07T05:33:32.103Z,-23.99
2023-01-07T05:38:37.147Z,-23.91
2023-01-07T05:43:40.737Z,-23.90
2023-01-07T05:48:44.114Z,-23.85
2023-01-07T05:53:49.104Z,-23.82
2023-01-07T05:58:52.699Z,-23.93
2023-01-07T06:03:56.315Z,-23.85
2023-01-07T06:09:01.465Z,-23.83
2023-01-07T06:14:05.042Z,-23.82
2023-01-07T06:19:08.626Z,-23.82
2023-01-07T06:24:13.704Z,-23.50
2023-01-07T06:29:17.276Z,-23.46
2023-01-07T06:34:20.871Z,-23.24
2023-01-07T06:39:26.109Z,-23.05
2023-01-07T06:44:29.573Z,-22.99
2023-01-07T06:49:33.053Z,-22.19
2023-01-07T06:54:37.849Z,-17.66
2023-01-07T06:59:41.467Z,-13.35
2023-01-07T07:04:44.956Z,-9.94
2023-01-07T07:09:51.617Z,-7.27
2023-01-07T07:14:55.076Z,-5.57
2023-01-07T07:19:58.717Z,-3.76
2023-01-07T07:25:03.572Z,-2.76
2023-01-07T07:30:08.681Z,-1.13
2023-01-07T07:35:12.779Z,-0.19
2023-01-07T07:40:17.803Z,1.07
2023-01-07T07:45:21.251Z,1.57
2023-01-07T07:50:24.745Z,1.79
2023-01-07T07:55:29.816Z,2.34
2023-01-07T08:00:33.729Z,2.57
2023-01-07T08:05:37.180Z,2.63
2023-01-07T08:10:42.456Z,2.65
2023-01-07T08:15:45.983Z,2.98
2023-01-07T08:20:49.606Z,2.92
2023-01-07T08:25:54.537Z,2.97
2023-01-07T08:30:58.462Z,2.61
2023-01-07T08:36:03.595Z,2.69
2023-01-07T08:41:11.903Z,2.21
2023-01-07T08:46:15.105Z,0.66
2023-01-07T08:51:18.652Z,-1.50
2023-01-07T08:56:24.130Z,-3.04
2023-01-07T09:01:29.274Z,-5.42
2023-01-07T09:06:32.933Z,-7.11
2023-01-07T09:11:37.973Z,-8.62
2023-01-07T09:16:41.628Z,-10.49
2023-01-07T09:21:45.445Z,-11.59
2023-01-07T09:26:50.495Z,-12.62
2023-01-07T09:31:54.198Z,-13.49
2023-01-07T09:36:57.813Z,-13.90
2023-01-07T09:42:10.258Z,-14.42
2023-01-07T09:47:17.751Z,-14.99
2023-01-07T09:52:26.076Z,-15.49
2023-01-07T09:57:31.332Z,-15.87
2023-01-07T10:02:43.424Z,-16.14
2023-01-07T10:07:54.497Z,-16.41
2023-01-07T10:13:43.469Z,-16.69
2023-01-07T10:18:59.533Z,-16.83
2023-01-07T10:24:06.914Z,-17.14
2023-01-07T10:29:17.618Z,-17.26
2023-01-07T10:34:26.162Z,-17.28
2023-01-07T10:39:37.074Z,-17.40
2023-01-07T10:45:18.492Z,-17.47
2023-01-07T10:50:37.329Z,-17.41
2023-01-07T10:55:53.401Z,-17.47
2023-01-07T11:00:59.282Z,-17.44
2023-01-07T11:06:10.166Z,-17.49
2023-01-07T11:11:17.224Z,-17.58
2023-01-07T11:16:27.097Z,-17.57
2023-01-07T11:21:43.191Z,-17.59
2023-01-07T11:26:48.232Z,-17.68
2023-01-07T11:31:55.769Z,-17.68
2023-01-07T11:36:59.950Z,-17.82
2023-01-07T11:42:29.688Z,-17.76
2023-01-07T11:47:34.835Z,-17.68
2023-01-07T11:52:38.528Z,-17.72
2023-01-07T11:57:43.024Z,-17.84
2023-01-07T12:03:01.847Z,-17.84
2023-01-07T12:08:06.700Z,-17.99
2023-01-07T12:13:23.508Z,-18.07
2023-01-07T12:18:57.036Z,-18.04
2023-01-07T12:24:20.529Z,-18.13
2023-01-07T12:29:38.009Z,-18.22
2023-01-07T12:34:51.314Z,-18.28
2023-01-07T12:40:04.138Z,-18.38
2023-01-07T12:45:18.791Z,-18.50
2023-01-07T12:50:29.131Z,-18.63
2023-01-07T12:55:36.809Z,-18.67
2023-01-07T13:00:47.112Z,-18.65
2023-01-07T13:05:56.584Z,-18.76
2023-01-07T13:11:04.329Z,-18.82
2023-01-07T13:16:11.543Z,-18.99
2023-01-07T13:21:17.905Z,-19.02
2023-01-07T13:26:34.231Z,-19.09
2023-01-07T13:31:52.034Z,-19.13
2023-01-07T13:37:11.080Z,-19.16
2023-01-07T13:42:27.826Z,-19.30
2023-01-07T13:47:43.215Z,-19.35
2023-01-07T13:52:58.565Z,-19.35
2023-01-07T13:58:03.204Z,-19.42
2023-01-07T14:03:28.672Z,-19.41
2023-01-07T14:08:33.752Z,-19.44
2023-01-07T14:13:44.134Z,-19.45
2023-01-07T14:19:03.347Z,-19.46
2023-01-07T14:24:36.110Z,-19.61
2023-01-07T14:29:46.542Z,-19.55
2023-01-07T14:34:57.125Z,-19.57
2023-01-07T14:40:02.496Z,-19.61
2023-01-07T14:45:51.256Z,-19.82
2023-01-07T14:51:02.397Z,-19.62
2023-01-07T14:56:39.332Z,-19.57
2023-01-07T15:02:15.429Z,-19.53
2023-01-07T15:07:23.335Z,-19.55
2023-01-07T15:12:49.915Z,-19.53
2023-01-07T15:17:53.563Z,-19.62
2023-01-07T15:23:09.257Z,-19.70
2023-01-07T15:28:22.533Z,-19.63
2023-01-07T15:33:51.517Z,-19.67
2023-01-07T15:38:57.523Z,-19.74
2023-01-07T15:44:05.129Z,-19.85
2023-01-07T15:49:19.288Z,-19.85
2023-01-07T15:54:40.420Z,-19.96
2023-01-07T15:59:48.483Z,-19.95
2023-01-07T16:04:54.165Z,-19.93
2023-01-07T16:09:59.365Z,-20.12
2023-01-07T16:15:21.443Z,-20.25
2023-01-07T16:20:29.615Z,-20.15
2023-01-07T16:25:36.985Z,-20.10
2023-01-07T16:30:44.390Z,-20.16
2023-01-07T16:35:49.784Z,-20.42
2023-01-07T16:40:54.494Z,-20.30
2023-01-07T16:46:11.050Z,-20.23
2023-01-07T16:51:38.584Z,-20.31
2023-01-07T16:56:49.595Z,-20.34
2023-01-07T17:01:55.263Z,-20.32
2023-01-07T17:07:01.605Z,-20.27
2023-01-07T17:12:06.203Z,-20.31
2023-01-07T17:17:22.917Z,-20.31
2023-01-07T17:22:34.859Z,-20.34
2023-01-07T17:27:43.637Z,-20.52
2023-01-07T17:32:50.822Z,-20.52
2023-01-07T17:37:55.419Z,-20.50
2023-01-07T17:43:16.306Z,-20.35
2023-01-07T17:48:21.286Z,-20.30
2023-01-07T17:53:27.867Z,-20.24
2023-01-07T17:58:33.521Z,-20.21
2023-01-07T18:03:38.659Z,-20.09
2023-01-07T18:08:42.347Z,-20.09
2023-01-07T18:13:45.889Z,-20.13
2023-01-07T18:18:50.841Z,-19.89
2023-01-07T18:23:54.459Z,-19.80
2023-01-07T18:28:58.047Z,-19.70
2023-01-07T18:34:02.954Z,-19.37
2023-01-07T18:39:09.493Z,-19.25
2023-01-07T18:44:14.918Z,-19.15
2023-01-07T18:49:19.708Z,-19.13
2023-01-07T18:54:23.115Z,-19.18
2023-01-07T18:59:26.888Z,-19.21
2023-01-07T19:04:31.810Z,-19.20
2023-01-07T19:09:35.509Z,-19.20
2023-01-07T19:14:39.177Z,-19.16
2023-01-07T19:19:48.663Z,-19.28
2023-01-07T19:24:52.705Z,-19.28
2023-01-07T19:29:56.373Z,-19.31
2023-01-07T19:35:01.243Z,-19.27
2023-01-07T19:40:05.324Z,-19.39
2023-01-07T19:45:09.996Z,-19.39
2023-01-07T19:50:16.409Z,-19.27
2023-01-07T19:55:21.338Z,-19.28
2023-01-07T20:00:25.258Z,-19.27
2023-01-07T20:05:30.195Z,-19.24
2023-01-07T20:10:34.048Z,-19.39
2023-01-07T20:15:37.481Z,-19.43
2023-01-07T20:20:42.155Z,-19.41
2023-01-07T20:25:45.595Z,-19.62
2023-01-07T20:30:49.534Z,-19.50
2023-01-07T20:36:02.746Z,-19.46
2023-01-07T20:41:07.604Z,-19.45
2023-01-07T20:46:11.713Z,-19.55
2023-01-07T20:51:17.231Z,-19.35
2023-01-07T20:56:22.041Z,-19.41
2023-01-07T21:01:25.880Z,-19.47
2023-01-07T21:06:31.037Z,-19.31
2023-01-07T21:11:34.685Z,-19.25
2023-01-07T21:16:38.564Z,-19.14
2023-01-07T21:21:43.979Z,-18.96
2023-01-07T21:26:47.595Z,-19.02
2023-01-07T21:31:53.238Z,-18.99
2023-01-07T21:36:58.377Z,-18.90
2023-01-07T21:42:01.960Z,-18.66
2023-01-07T21:47:05.633Z,-18.53
2023-01-07T21:52:10.572Z,-18.40
2023-01-07T21:57:14.253Z,-18.41
2023-01-07T22:02:18.953Z,-18.35
2023-01-07T22:07:23.979Z,-18.28
2023-01-07T22:12:27.425Z,-18.26
2023-01-07T22:17:31.018Z,-18.28
2023-01-07T22:22:35.444Z,-18.27
2023-01-07T22:27:39.025Z,-18.31
2023-01-07T22:32:42.048Z,-18.19
2023-01-07T22:37:47.481Z,-18.12
2023-01-07T22:42:56.701Z,-18.01
2023-01-07T22:48:00.930Z,-17.88
2023-01-07T22:53:06.060Z,-17.72
2023-01-07T22:58:10.062Z,-17.72
2023-01-07T23:03:13.633Z,-17.76
2023-01-07T23:08:18.424Z,-17.74
2023-01-07T23:13:21.898Z,-17.85
2023-01-07T23:18:25.499Z,-17.64
2023-01-07T23:23:31.716Z,-17.50
2023-01-07T23:28:35.307Z,-17.60
2023-01-07T23:33:38.509Z,-17.58
2023-01-07T23:38:43.556Z,-17.60
2023-01-07T23:43:47.143Z,-17.59
2023-01-07T23:48:50.699Z,-17.46
2023-01-07T23:53:55.517Z,-17.30
2023-01-07T23:59:00.638Z,-17.21
